createdAt,value
2024-04-12T00:00:23.918Z,25.84
2024-04-12T00:01:24.058Z,25.86
2024-04-12T00:02:24.164Z,25.84
2024-04-12T00:03:24.206Z,25.83
2024-04-12T00:04:24.193Z,25.84
2024-04-12T00:05:24.240Z,25.84
2024-04-12T00:06:24.320Z,25.81
2024-04-12T00:07:24.383Z,25.84
2024-04-12T00:08:24.440Z,25.84
2024-04-12T00:09:24.532Z,25.84
2024-04-12T00:10:24.600Z,25.84
2024-04-12T00:11:24.685Z,25.84
2024-04-12T00:12:24.721Z,25.83
2024-04-12T00:13:24.775Z,25.84
2024-04-12T00:14:24.844Z,25.84
2024-04-12T00:15:24.926Z,25.81
2024-04-12T00:16:25.007Z,25.86
2024-04-12T00:17:25.094Z,25.81
2024-04-12T00:18:25.192Z,25.81
2024-04-12T00:19:25.325Z,25.83
2024-04-12T00:20:25.276Z,25.83
2024-04-12T00:21:25.332Z,25.84
2024-04-12T00:22:25.364Z,25.81
2024-04-12T00:23:25.414Z,25.83
2024-04-12T00:24:26.056Z,25.83
2024-04-12T00:25:25.557Z,25.83
2024-04-12T00:26:25.646Z,25.84
2024-04-12T00:27:25.662Z,25.83
2024-04-12T00:28:25.698Z,25.80
2024-04-12T00:29:25.755Z,25.83
2024-04-12T00:30:25.822Z,25.81
2024-04-12T00:31:25.846Z,25.83
2024-04-12T00:32:25.913Z,25.81
2024-04-12T00:33:26.142Z,25.80
2024-04-12T00:34:25.939Z,25.80
2024-04-12T00:35:26.002Z,25.79
2024-04-12T00:36:26.049Z,25.83
2024-04-12T00:37:26.085Z,25.81
2024-04-12T00:38:26.129Z,25.83
2024-04-12T00:39:26.187Z,25.83
2024-04-12T00:40:26.236Z,25.84
2024-04-12T00:41:26.288Z,25.83
2024-04-12T00:42:26.359Z,25.81
2024-04-12T00:43:26.413Z,25.83
2024-04-12T00:44:26.487Z,25.83
2024-04-12T00:45:26.539Z,25.83
2024-04-12T00:46:26.625Z,25.81
2024-04-12T00:47:26.730Z,25.84
2024-04-12T00:48:26.816Z,25.80
2024-04-12T00:49:26.801Z,25.81
2024-04-12T00:50:26.866Z,25.83
2024-04-12T00:51:26.932Z,25.81
2024-04-12T00:52:26.991Z,25.79
2024-04-12T00:53:27.068Z,25.83
2024-04-12T00:54:27.124Z,25.80
2024-04-12T00:55:27.194Z,25.81
2024-04-12T00:56:27.266Z,25.81
2024-04-12T00:57:27.302Z,25.80
2024-04-12T00:58:27.389Z,25.81
2024-04-12T00:59:27.441Z,25.81
2024-04-12T01:00:27.496Z,25.81
2024-04-12T01:01:27.652Z,25.84
2024-04-12T01:02:27.674Z,25.81
2024-04-12T01:03:27.769Z,25.80
2024-04-12T01:04:27.891Z,25.83
2024-04-12T01:05:27.829Z,25.80
2024-04-12T01:06:27.908Z,25.81
2024-04-12T01:07:27.999Z,25.79
2024-04-12T01:08:28.040Z,25.81
2024-04-12T01:09:28.113Z,25.77
2024-04-12T01:10:28.997Z,25.81
2024-04-12T01:11:28.230Z,25.80
2024-04-12T01:12:28.919Z,25.80
2024-04-12T01:13:28.366Z,25.80
2024-04-12T01:14:28.430Z,25.80
2024-04-12T01:15:28.457Z,25.80
2024-04-12T01:16:28.588Z,25.80
2024-04-12T01:17:28.654Z,25.80
2024-04-12T01:18:28.706Z,25.79
2024-04-12T01:19:28.700Z,25.80
2024-04-12T01:20:28.748Z,25.80
2024-04-12T01:21:28.821Z,25.80
2024-04-12T01:22:28.858Z,25.77
2024-04-12T01:23:28.923Z,25.83
2024-04-12T01:24:29.015Z,25.79
2024-04-12T01:25:29.053Z,25.80
2024-04-12T01:26:29.240Z,25.80
2024-04-12T01:27:29.203Z,25.80
2024-04-12T01:28:29.266Z,25.81
2024-04-12T01:29:29.319Z,25.80
2024-04-12T01:30:29.384Z,25.79
2024-04-12T01:31:29.448Z,25.79
2024-04-12T01:32:29.523Z,25.80
2024-04-12T01:33:29.656Z,25.80
2024-04-12T01:34:29.622Z,25.80
2024-04-12T01:35:29.681Z,25.80
2024-04-12T01:36:29.761Z,25.80
2024-04-12T01:37:29.811Z,25.80
2024-04-12T01:38:29.884Z,25.79
2024-04-12T01:39:29.988Z,25.79
2024-04-12T01:40:29.984Z,25.80
2024-04-12T01:41:30.053Z,25.79
2024-04-12T01:42:30.095Z,25.77
2024-04-12T01:43:30.213Z,25.79
2024-04-12T01:44:30.238Z,25.77
2024-04-12T01:45:30.304Z,25.79
2024-04-12T01:46:30.366Z,25.79
2024-04-12T01:47:30.525Z,25.79
2024-04-12T01:48:30.877Z,25.79
2024-04-12T01:49:30.579Z,25.79
2024-04-12T01:50:30.631Z,25.77
2024-04-12T01:51:30.696Z,25.80
2024-04-12T01:52:30.737Z,25.76
2024-04-12T01:53:30.810Z,25.80
2024-04-12T01:54:30.883Z,25.77
2024-04-12T01:55:30.935Z,25.74
2024-04-12T01:56:31.027Z,25.79
2024-04-12T01:57:31.051Z,25.79
2024-04-12T01:58:31.125Z,25.80
2024-04-12T01:59:31.187Z,25.76
2024-04-12T02:00:31.283Z,25.77
2024-04-12T02:01:31.335Z,25.79
2024-04-12T02:02:31.380Z,25.76
2024-04-12T02:03:31.766Z,25.79
2024-04-12T02:04:31.678Z,25.79
2024-04-12T02:05:31.577Z,25.77
2024-04-12T02:06:31.637Z,25.76
2024-04-12T02:07:31.705Z,25.76
2024-04-12T02:08:31.837Z,25.76
2024-04-12T02:09:31.847Z,25.77
2024-04-12T02:10:31.924Z,25.77
2024-04-12T02:11:32.055Z,25.77
2024-04-12T02:12:32.059Z,25.77
2024-04-12T02:13:32.103Z,25.74
2024-04-12T02:14:32.220Z,25.76
2024-04-12T02:15:32.265Z,25.76
2024-04-12T02:16:32.337Z,25.77
2024-04-12T02:17:32.495Z,25.79
2024-04-12T02:18:32.508Z,25.77
2024-04-12T02:19:32.500Z,25.76
2024-04-12T02:20:32.591Z,25.77
2024-04-12T02:21:32.613Z,25.77
2024-04-12T02:22:32.667Z,25.77
2024-04-12T02:23:32.741Z,25.77
2024-04-12T02:24:32.790Z,25.76
2024-04-12T02:25:32.865Z,25.77
2024-04-12T02:26:33.005Z,25.76
2024-04-12T02:27:32.995Z,25.77
2024-04-12T02:28:33.045Z,25.76
2024-04-12T02:29:33.236Z,25.73
2024-04-12T02:30:33.181Z,25.77
2024-04-12T02:31:33.272Z,25.74
2024-04-12T02:32:33.399Z,25.77
2024-04-12T02:33:33.942Z,25.76
2024-04-12T02:34:33.442Z,25.76
2024-04-12T02:35:33.570Z,25.76
2024-04-12T02:36:33.593Z,25.74
2024-04-12T02:37:33.662Z,25.76
2024-04-12T02:38:33.734Z,25.76
2024-04-12T02:39:33.779Z,25.72
2024-04-12T02:40:33.844Z,25.74
2024-04-12T02:41:33.920Z,25.77
2024-04-12T02:42:33.938Z,25.77
2024-04-12T02:43:34.051Z,25.74
2024-04-12T02:44:34.104Z,25.76
2024-04-12T02:45:34.166Z,25.76
2024-04-12T02:46:34.212Z,25.77
2024-04-12T02:47:34.387Z,25.74
2024-04-12T02:48:34.430Z,25.76
2024-04-12T02:49:34.422Z,25.77
2024-04-12T02:50:34.527Z,25.74
2024-04-12T02:51:34.521Z,25.74
2024-04-12T02:52:34.578Z,25.73
2024-04-12T02:53:34.647Z,25.77
2024-04-12T02:54:34.715Z,25.76
2024-04-12T02:55:34.777Z,25.73
2024-04-12T02:56:34.882Z,25.74
2024-04-12T02:57:34.889Z,25.74
2024-04-12T02:58:34.962Z,25.73
2024-04-12T02:59:35.036Z,25.73
2024-04-12T03:00:35.084Z,25.74
2024-04-12T03:01:35.146Z,25.73
2024-04-12T03:02:35.270Z,25.76
2024-04-12T03:03:35.347Z,25.74
2024-04-12T03:04:35.341Z,25.74
2024-04-12T03:05:35.467Z,25.76
2024-04-12T03:06:35.495Z,25.74
2024-04-12T03:07:35.518Z,25.74
2024-04-12T03:08:35.616Z,25.73
2024-04-12T03:09:35.593Z,25.74
2024-04-12T03:10:35.616Z,25.73
2024-04-12T03:11:36.626Z,25.73
2024-04-12T03:12:35.712Z,25.76
2024-04-12T03:13:35.778Z,25.74
2024-04-12T03:14:35.853Z,25.74
2024-04-12T03:15:35.816Z,25.72
2024-04-12T03:16:35.915Z,25.74
2024-04-12T03:17:35.927Z,25.74
2024-04-12T03:18:36.036Z,25.72
2024-04-12T03:19:35.952Z,25.74
2024-04-12T03:20:36.013Z,25.72
2024-04-12T03:21:36.022Z,25.74
2024-04-12T03:22:36.048Z,25.73
2024-04-12T03:23:36.050Z,25.74
2024-04-12T03:24:36.078Z,25.74
2024-04-12T03:25:36.128Z,25.73
2024-04-12T03:26:36.216Z,25.72
2024-04-12T03:27:36.260Z,25.70
2024-04-12T03:28:36.307Z,25.72
2024-04-12T03:29:36.423Z,25.70
2024-04-12T03:30:36.450Z,25.73
2024-04-12T03:31:36.550Z,25.72
2024-04-12T03:32:36.662Z,25.72
2024-04-12T03:33:36.824Z,25.73
2024-04-12T03:34:36.699Z,25.73
2024-04-12T03:35:36.794Z,25.74
2024-04-12T03:36:36.843Z,25.72
2024-04-12T03:37:36.937Z,25.73
2024-04-12T03:38:37.041Z,25.70
2024-04-12T03:39:37.062Z,25.73
2024-04-12T03:40:37.109Z,25.73
2024-04-12T03:41:37.199Z,25.72
2024-04-12T03:42:37.240Z,25.72
2024-04-12T03:43:37.257Z,25.72
2024-04-12T03:44:37.428Z,25.72
2024-04-12T03:45:37.369Z,25.72
2024-04-12T03:46:37.445Z,25.73
2024-04-12T03:47:37.612Z,25.73
2024-04-12T03:48:37.645Z,25.73
2024-04-12T03:49:37.589Z,25.70
2024-04-12T03:50:37.704Z,25.73
2024-04-12T03:51:37.706Z,25.72
2024-04-12T03:52:37.791Z,25.72
2024-04-12T03:53:37.954Z,25.73
2024-04-12T03:54:37.875Z,25.72
2024-04-12T03:55:37.937Z,25.72
2024-04-12T03:56:37.988Z,25.72
2024-04-12T03:57:38.011Z,25.70
2024-04-12T03:58:38.069Z,25.70
2024-04-12T03:59:38.072Z,25.72
2024-04-12T04:00:38.135Z,25.73
2024-04-12T04:01:38.176Z,25.70
2024-04-12T04:02:38.249Z,25.72
2024-04-12T04:03:38.262Z,25.72
2024-04-12T04:04:38.279Z,25.70
2024-04-12T04:05:38.352Z,25.70
2024-04-12T04:06:38.394Z,25.73
2024-04-12T04:07:38.472Z,25.72
2024-04-12T04:08:38.502Z,25.70
2024-04-12T04:09:38.551Z,25.70
2024-04-12T04:10:38.595Z,25.72
2024-04-12T04:11:38.713Z,25.70
2024-04-12T04:12:38.718Z,25.72
2024-04-12T04:13:38.789Z,25.72
2024-04-12T04:14:38.920Z,25.72
2024-04-12T04:15:38.920Z,25.70
2024-04-12T04:16:38.960Z,25.70
2024-04-12T04:17:39.114Z,25.72
2024-04-12T04:18:39.137Z,25.72
2024-04-12T04:19:39.122Z,25.70
2024-04-12T04:20:39.194Z,25.72
2024-04-12T04:21:39.180Z,25.72
2024-04-12T04:22:39.193Z,25.72
2024-04-12T04:23:39.220Z,25.72
2024-04-12T04:24:39.256Z,25.69
2024-04-12T04:25:39.268Z,25.72
2024-04-12T04:26:39.422Z,25.72
2024-04-12T04:27:39.413Z,25.72
2024-04-12T04:28:39.374Z,25.70
2024-04-12T04:29:39.434Z,25.72
2024-04-12T04:30:39.475Z,25.69
2024-04-12T04:31:39.509Z,25.70
2024-04-12T04:32:39.623Z,25.69
2024-04-12T04:33:39.703Z,25.70
2024-04-12T04:34:39.641Z,25.72
2024-04-12T04:35:39.758Z,25.69
2024-04-12T04:36:39.785Z,25.70
2024-04-12T04:37:40.229Z,25.69
2024-04-12T04:38:39.895Z,25.66
2024-04-12T04:39:39.925Z,25.70
2024-04-12T04:40:39.931Z,25.69
2024-04-12T04:41:40.002Z,25.67
2024-04-12T04:42:40.002Z,25.70
2024-04-12T04:43:40.004Z,25.69
2024-04-12T04:44:40.035Z,25.69
2024-04-12T04:45:40.124Z,25.69
2024-04-12T04:46:47.451Z,25.64
2024-04-12T04:47:47.626Z,25.66
2024-04-12T04:48:47.630Z,25.66
2024-04-12T04:49:47.446Z,25.69
2024-04-12T04:50:47.494Z,25.67
2024-04-12T04:51:47.460Z,25.67
2024-04-12T04:52:47.480Z,25.67
2024-04-12T04:53:47.533Z,25.69
2024-04-12T04:54:47.455Z,25.70
2024-04-12T04:55:47.467Z,25.70
2024-04-12T04:56:47.490Z,25.70
2024-04-12T04:57:47.464Z,25.67
2024-04-12T04:58:47.464Z,25.70
2024-04-12T04:59:47.528Z,25.69
2024-04-12T05:00:47.628Z,25.67
2024-04-12T05:01:47.512Z,25.67
2024-04-12T05:02:47.524Z,25.70
2024-04-12T05:03:47.474Z,25.67
2024-04-12T05:04:47.506Z,25.70
2024-04-12T05:05:47.523Z,25.67
2024-04-12T05:06:47.524Z,25.69
2024-04-12T05:07:47.481Z,25.67
2024-04-12T05:08:47.512Z,25.64
2024-04-12T05:09:47.530Z,25.67
2024-04-12T05:10:47.488Z,25.69
2024-04-12T05:11:47.541Z,25.67
2024-04-12T05:12:47.583Z,25.69
2024-04-12T05:13:47.489Z,25.66
2024-04-12T05:14:47.514Z,25.69
2024-04-12T05:15:47.498Z,25.66
2024-04-12T05:16:47.493Z,25.67
2024-04-12T05:17:47.635Z,25.67
2024-04-12T05:18:47.601Z,25.67
2024-04-12T05:19:47.496Z,25.66
2024-04-12T05:20:47.536Z,25.67
2024-04-12T05:21:47.527Z,25.64
2024-04-12T05:22:47.621Z,25.66
2024-04-12T05:23:47.559Z,25.69
2024-04-12T05:24:47.514Z,25.64
2024-04-12T05:25:47.508Z,25.64
2024-04-12T05:26:47.570Z,25.66
2024-04-12T05:27:47.537Z,25.64
2024-04-12T05:28:47.563Z,25.66
2024-04-12T05:29:48.379Z,25.64
2024-04-12T05:30:47.515Z,25.63
2024-04-12T05:31:47.537Z,25.63
2024-04-12T05:32:47.687Z,25.57
2024-04-12T05:33:47.600Z,25.49
2024-04-12T05:34:47.528Z,25.52
2024-04-12T05:35:47.704Z,25.52
2024-04-12T05:36:47.560Z,25.49
2024-04-12T05:37:51.033Z,25.50
2024-04-12T05:38:47.568Z,25.47
2024-04-12T05:39:47.620Z,25.47
2024-04-12T05:40:47.655Z,25.46
2024-04-12T05:41:47.582Z,25.42
2024-04-12T05:42:47.566Z,25.39
2024-04-12T05:43:47.536Z,25.32
2024-04-12T05:44:47.641Z,25.13
2024-04-12T05:45:47.570Z,25.23
2024-04-12T05:46:47.638Z,25.23
2024-04-12T05:47:48.156Z,25.22
2024-04-12T05:48:47.581Z,25.28
2024-04-12T05:49:47.573Z,25.30
2024-04-12T05:50:47.587Z,25.36
2024-04-12T05:51:47.579Z,25.39
2024-04-12T05:52:47.551Z,25.39
2024-04-12T05:53:47.607Z,25.39
2024-04-12T05:54:47.599Z,25.43
2024-04-12T05:55:47.569Z,25.40
2024-04-12T05:56:47.596Z,25.46
2024-04-12T05:57:47.553Z,25.46
2024-04-12T05:58:47.579Z,25.44
2024-04-12T05:59:47.616Z,25.47
2024-04-12T06:00:47.684Z,25.49
2024-04-12T06:01:47.672Z,25.52
2024-04-12T06:02:47.623Z,25.50
2024-04-12T06:04:47.571Z,25.50
2024-04-12T06:05:47.595Z,25.53
2024-04-12T06:06:47.598Z,25.53
2024-04-12T06:07:47.633Z,25.53
2024-04-12T06:08:47.653Z,25.56
2024-04-12T06:09:47.580Z,25.53
2024-04-12T06:10:47.588Z,25.56
2024-04-12T06:11:47.747Z,25.56
2024-04-12T06:12:48.650Z,25.56
2024-04-12T06:13:47.586Z,25.57
2024-04-12T06:14:47.622Z,25.59
2024-04-12T06:15:47.602Z,25.59
2024-04-12T06:16:47.617Z,25.59
2024-04-12T06:17:47.719Z,25.57
2024-04-12T06:18:47.634Z,25.57
2024-04-12T06:19:47.597Z,25.60
2024-04-12T06:20:47.634Z,25.57
2024-04-12T06:21:47.650Z,25.62
2024-04-12T06:22:47.632Z,25.60
2024-04-12T06:23:47.685Z,25.57
2024-04-12T06:24:47.695Z,25.60
2024-04-12T06:25:47.711Z,25.59
2024-04-12T06:26:47.777Z,25.62
2024-04-12T06:27:47.746Z,25.62
2024-04-12T06:28:47.762Z,25.63
2024-04-12T06:29:47.967Z,25.66
2024-04-12T06:30:47.821Z,25.62
2024-04-12T06:31:48.106Z,25.63
2024-04-12T06:32:48.075Z,25.62
2024-04-12T06:33:47.971Z,25.60
2024-04-12T06:34:47.899Z,25.52
2024-04-12T06:35:47.918Z,25.47
2024-04-12T06:36:48.028Z,25.46
2024-04-12T06:37:49.685Z,25.42
2024-04-12T06:38:48.036Z,25.28
2024-04-12T06:39:47.964Z,25.33
2024-04-12T06:40:47.952Z,25.29
2024-04-12T06:41:48.126Z,25.29
2024-04-12T06:42:48.027Z,25.30
2024-04-12T06:43:48.044Z,25.28
2024-04-12T06:44:47.992Z,25.29
2024-04-12T06:45:47.976Z,25.26
2024-04-12T06:46:48.002Z,25.29
2024-04-12T06:47:48.068Z,25.20
2024-04-12T06:48:48.043Z,25.19
2024-04-12T06:49:47.954Z,25.16
2024-04-12T06:50:47.971Z,25.13
2024-04-12T06:51:47.964Z,25.10
2024-04-12T06:52:47.952Z,25.10
2024-04-12T06:53:48.071Z,25.10
2024-04-12T06:54:47.981Z,25.10
2024-04-12T06:55:47.995Z,25.15
2024-04-12T06:56:48.013Z,25.12
2024-04-12T06:57:47.972Z,25.10
2024-04-12T06:58:48.119Z,25.12
2024-04-12T06:59:48.012Z,25.10
2024-04-12T07:00:47.969Z,25.12
2024-04-12T07:01:48.113Z,25.15
2024-04-12T07:02:48.156Z,25.10
2024-04-12T07:03:48.484Z,25.16
2024-04-12T07:04:47.970Z,25.15
2024-04-12T07:05:48.003Z,25.12
2024-04-12T07:06:47.987Z,25.10
2024-04-12T07:07:47.976Z,25.00
2024-04-12T07:08:48.000Z,24.98
2024-04-12T07:09:48.014Z,25.00
2024-04-12T07:10:47.999Z,24.98
2024-04-12T07:11:48.053Z,24.96
2024-04-12T07:12:47.997Z,24.99
2024-04-12T07:13:48.012Z,24.96
2024-04-12T07:14:48.026Z,24.98
2024-04-12T07:15:48.039Z,24.96
2024-04-12T07:16:48.009Z,24.95
2024-04-12T07:17:48.120Z,24.95
2024-04-12T07:18:48.059Z,24.93
2024-04-12T07:19:48.112Z,24.98
2024-04-12T07:20:48.038Z,24.96
2024-04-12T07:21:48.095Z,24.86
2024-04-12T07:22:48.055Z,24.92
2024-04-12T07:23:48.420Z,24.96
2024-04-12T07:24:48.038Z,24.92
2024-04-12T07:25:48.034Z,24.95
2024-04-12T07:26:48.132Z,24.93
2024-04-12T07:27:48.050Z,24.92
2024-04-12T07:28:48.029Z,24.93
2024-04-12T07:29:48.116Z,24.92
2024-04-12T07:30:48.055Z,24.96
2024-04-12T07:31:48.143Z,24.86
2024-04-12T07:32:48.143Z,24.93
2024-04-12T07:33:48.129Z,24.95
2024-04-12T07:34:48.020Z,24.90
2024-04-12T07:35:48.079Z,24.99
2024-04-12T07:36:48.059Z,24.99
2024-04-12T07:37:48.087Z,25.08
2024-04-12T07:38:48.260Z,25.15
2024-04-12T07:39:48.060Z,25.18
2024-04-12T07:40:48.031Z,25.25
2024-04-12T07:41:48.070Z,25.29
2024-04-12T07:42:48.093Z,25.30
2024-04-12T07:43:48.059Z,25.36
2024-04-12T07:44:48.086Z,25.36
2024-04-12T07:45:48.169Z,25.39
2024-04-12T07:46:48.194Z,25.37
2024-04-12T07:47:48.144Z,25.36
2024-04-12T07:48:48.135Z,25.39
2024-04-12T07:49:48.064Z,25.44
2024-04-12T07:50:48.120Z,25.47
2024-04-12T07:51:48.071Z,25.49
2024-04-12T07:52:48.055Z,25.52
2024-04-12T07:53:48.150Z,25.49
2024-04-12T07:54:48.143Z,25.50
2024-04-12T07:55:49.555Z,25.40
2024-04-12T07:56:48.087Z,25.33
2024-04-12T07:57:48.096Z,25.30
2024-04-12T07:58:48.078Z,25.28
2024-04-12T07:59:48.140Z,25.20
2024-04-12T08:00:48.126Z,25.19
2024-04-12T08:01:48.155Z,25.25
2024-04-12T08:02:48.143Z,25.26
2024-04-12T08:03:48.182Z,25.26
2024-04-12T08:04:48.131Z,25.30
2024-04-12T08:05:48.132Z,25.23
2024-04-12T08:06:48.091Z,25.10
2024-04-12T08:07:48.103Z,25.19
2024-04-12T08:08:48.149Z,25.22
2024-04-12T08:09:48.133Z,25.22
2024-04-12T08:10:48.169Z,25.23
2024-04-12T08:11:48.180Z,25.25
2024-04-12T08:12:48.141Z,25.28
2024-04-12T08:13:48.094Z,25.26
2024-04-12T08:14:48.156Z,25.32
2024-04-12T08:15:48.147Z,25.30
2024-04-12T08:16:48.114Z,25.34
2024-04-12T08:17:48.263Z,25.37
2024-04-12T08:18:48.166Z,25.33
2024-04-12T08:19:48.101Z,25.33
2024-04-12T08:20:48.259Z,25.36
2024-04-12T08:21:48.661Z,25.39
2024-04-12T08:22:48.149Z,25.34
2024-04-12T08:23:48.258Z,25.42
2024-04-12T08:24:48.216Z,25.36
2024-04-12T08:25:48.106Z,25.33
2024-04-12T08:26:48.199Z,25.32
2024-04-12T08:27:48.173Z,25.34
2024-04-12T08:28:48.115Z,25.39
2024-04-12T08:29:48.151Z,25.42
2024-04-12T08:30:48.189Z,25.46
2024-04-12T08:31:48.172Z,25.44
2024-04-12T08:32:48.202Z,25.44
2024-04-12T08:33:48.192Z,25.47
2024-04-12T08:34:48.130Z,25.50
2024-04-12T08:35:48.202Z,25.50
2024-04-12T08:36:48.160Z,25.50
2024-04-12T08:37:51.239Z,25.53
2024-04-12T08:38:49.185Z,25.56
2024-04-12T08:39:48.168Z,25.54
2024-04-12T08:40:48.201Z,25.53
2024-04-12T08:41:48.207Z,25.49
2024-04-12T08:42:48.188Z,25.49
2024-04-12T08:43:48.142Z,25.56
2024-04-12T08:44:48.327Z,25.54
2024-04-12T08:45:48.215Z,25.53
2024-04-12T08:46:48.331Z,25.53
2024-04-12T08:47:48.397Z,25.56
2024-04-12T08:48:48.498Z,25.47
2024-04-12T08:49:48.334Z,25.50
2024-04-12T08:50:48.457Z,25.52
2024-04-12T08:51:48.473Z,25.53
2024-04-12T08:52:48.535Z,25.50
2024-04-12T08:53:48.632Z,25.56
2024-04-12T08:54:48.676Z,25.56
2024-04-12T08:55:48.717Z,25.57
2024-04-12T08:56:48.793Z,25.54
2024-04-12T08:57:48.947Z,25.57
2024-04-12T08:58:48.920Z,25.53
2024-04-12T08:59:49.059Z,25.62
2024-04-12T09:00:49.084Z,25.62
2024-04-12T09:01:49.125Z,25.66
2024-04-12T09:02:50.291Z,25.64
2024-04-12T09:03:49.311Z,25.66
2024-04-12T09:04:49.340Z,25.69
2024-04-12T09:05:49.588Z,25.69
2024-04-12T09:06:49.413Z,25.69
2024-04-12T09:07:49.503Z,25.69
2024-04-12T09:08:49.618Z,25.72
2024-04-12T09:09:49.622Z,25.74
2024-04-12T09:10:49.680Z,25.76
2024-04-12T09:11:49.796Z,25.74
2024-04-12T09:12:49.798Z,25.74
2024-04-12T09:13:49.848Z,25.76
2024-04-12T09:14:49.913Z,25.79
2024-04-12T09:15:49.952Z,25.79
2024-04-12T09:16:50.135Z,25.79
2024-04-12T09:17:50.269Z,25.80
2024-04-12T09:18:50.243Z,25.80
2024-04-12T09:19:50.176Z,25.83
2024-04-12T09:20:50.285Z,25.84
2024-04-12T09:21:50.350Z,25.81
2024-04-12T09:22:50.383Z,25.83
2024-04-12T09:23:50.452Z,25.83
2024-04-12T09:24:50.520Z,25.83
2024-04-12T09:25:50.560Z,25.83
2024-04-12T09:26:50.646Z,25.83
2024-04-12T09:27:50.763Z,25.81
2024-04-12T09:28:50.828Z,25.86
2024-04-12T09:29:50.803Z,25.84
2024-04-12T09:30:50.820Z,25.86
2024-04-12T09:31:50.938Z,25.87
2024-04-12T09:32:51.093Z,25.76
2024-04-12T09:33:51.164Z,25.74
2024-04-12T09:34:51.053Z,25.74
2024-04-12T09:35:51.205Z,25.79
2024-04-12T09:36:51.167Z,25.79
2024-04-12T09:37:51.244Z,25.70
2024-04-12T09:38:51.293Z,25.76
2024-04-12T09:39:51.344Z,25.72
2024-04-12T09:40:51.356Z,25.79
2024-04-12T09:41:51.431Z,25.80
2024-04-12T09:42:51.697Z,25.87
2024-04-12T09:43:51.450Z,25.86
2024-04-12T09:44:51.548Z,25.86
2024-04-12T09:45:51.546Z,25.87
2024-04-12T09:46:51.621Z,25.88
2024-04-12T09:47:51.847Z,25.87
2024-04-12T09:48:51.771Z,25.87
2024-04-12T09:49:51.895Z,25.90
2024-04-12T09:50:51.864Z,25.87
2024-04-12T09:51:51.877Z,25.86
2024-04-12T09:52:51.938Z,25.86
2024-04-12T09:53:52.077Z,25.86
2024-04-12T09:54:52.086Z,25.84
2024-04-12T09:55:52.213Z,25.86
2024-04-12T09:56:52.265Z,25.84
2024-04-12T09:57:52.297Z,25.84
2024-04-12T09:58:52.332Z,25.83
2024-04-12T09:59:52.451Z,25.83
2024-04-12T10:00:52.476Z,25.83
2024-04-12T10:01:52.545Z,25.84
2024-04-12T10:02:52.856Z,25.84
2024-04-12T10:03:52.701Z,25.84
2024-04-12T10:04:52.753Z,25.84
2024-04-12T10:05:52.853Z,25.81
2024-04-12T10:06:52.906Z,25.81
2024-04-12T10:07:52.927Z,25.79
2024-04-12T10:08:53.028Z,25.83
2024-04-12T10:09:53.042Z,25.83
2024-04-12T10:10:53.143Z,25.81
2024-04-12T10:11:53.199Z,25.80
2024-04-12T10:12:53.282Z,25.83
2024-04-12T10:13:53.291Z,25.80
2024-04-12T10:14:53.368Z,25.81
2024-04-12T10:15:53.433Z,25.81
2024-04-12T10:16:53.502Z,25.81
2024-04-12T10:17:53.739Z,25.80
2024-04-12T10:18:53.753Z,25.81
2024-04-12T10:19:53.690Z,25.79
2024-04-12T10:20:53.830Z,25.79
2024-04-12T10:21:53.882Z,25.83
2024-04-12T10:22:53.911Z,25.79
2024-04-12T10:23:54.009Z,25.80
2024-04-12T10:24:54.049Z,25.79
2024-04-12T10:25:54.093Z,25.81
2024-04-12T10:26:54.162Z,25.84
2024-04-12T10:27:54.700Z,25.83
2024-04-12T10:28:54.256Z,25.84
2024-04-12T10:29:54.370Z,25.87
2024-04-12T10:30:54.387Z,25.84
2024-04-12T10:31:54.492Z,25.86
2024-04-12T10:32:54.633Z,25.88
2024-04-12T10:33:54.595Z,25.86
2024-04-12T10:34:54.600Z,25.86
2024-04-12T10:35:54.824Z,25.73
2024-04-12T10:36:54.732Z,25.80
2024-04-12T10:37:54.813Z,25.80
2024-04-12T10:38:54.927Z,25.81
2024-04-12T10:39:54.958Z,25.81
2024-04-12T10:40:55.004Z,25.81
2024-04-12T10:41:55.056Z,25.83
2024-04-12T10:42:55.243Z,25.83
2024-04-12T10:43:55.148Z,25.83
2024-04-12T10:44:55.252Z,25.84
2024-04-12T10:45:55.336Z,25.83
2024-04-12T10:46:55.339Z,25.84
2024-04-12T10:47:55.438Z,25.86
2024-04-12T10:48:55.484Z,25.84
2024-04-12T10:49:55.515Z,25.84
2024-04-12T10:50:55.679Z,25.86
2024-04-12T10:51:55.627Z,25.86
2024-04-12T10:52:55.704Z,25.87
2024-04-12T10:53:55.782Z,25.88
2024-04-12T10:54:55.793Z,25.87
2024-04-12T10:55:55.893Z,25.86
2024-04-12T10:56:58.873Z,25.81
2024-04-12T10:57:56.013Z,25.77
2024-04-12T10:58:55.932Z,25.76
2024-04-12T10:59:55.954Z,25.76
2024-04-12T11:00:55.985Z,25.76
2024-04-12T11:01:55.945Z,25.72
2024-04-12T11:03:02.771Z,25.69
2024-04-12T11:03:56.978Z,25.72
2024-04-12T11:04:58.085Z,25.73
2024-04-12T11:05:55.954Z,25.74
2024-04-12T11:06:55.952Z,25.73
2024-04-12T11:07:56.222Z,25.73
2024-04-12T11:08:55.992Z,25.59
2024-04-12T11:09:55.971Z,25.60
2024-04-12T11:10:56.093Z,25.53
2024-04-12T11:11:55.978Z,25.63
2024-04-12T11:12:55.964Z,25.63
2024-04-12T11:13:55.968Z,25.69
2024-04-12T11:14:56.001Z,25.66
2024-04-12T11:15:56.006Z,25.69
2024-04-12T11:16:55.968Z,25.69
2024-04-12T11:17:56.124Z,25.67
2024-04-12T11:18:56.146Z,25.64
2024-04-12T11:19:55.988Z,25.69
2024-04-12T11:20:56.008Z,25.70
2024-04-12T11:21:56.032Z,25.73
2024-04-12T11:22:56.003Z,25.73
2024-04-12T11:23:55.994Z,25.64
2024-04-12T11:24:56.022Z,25.73
2024-04-12T11:25:55.965Z,25.77
2024-04-12T11:26:55.986Z,25.77
2024-04-12T11:27:56.004Z,25.79
2024-04-12T11:28:55.998Z,25.83
2024-04-12T11:29:56.028Z,25.84
2024-04-12T11:30:56.012Z,25.84
2024-04-12T11:31:56.043Z,25.86
2024-04-12T11:32:56.024Z,25.88
2024-04-12T11:34:04.018Z,25.90
2024-04-12T11:34:57.100Z,25.90
2024-04-12T11:35:56.168Z,25.91
2024-04-12T11:36:56.009Z,25.93
2024-04-12T11:37:56.012Z,25.91
2024-04-12T11:38:56.019Z,25.93
2024-04-12T11:39:56.006Z,25.94
2024-04-12T11:40:56.014Z,25.94
2024-04-12T11:41:56.061Z,25.96
2024-04-12T11:42:56.047Z,25.97
2024-04-12T11:43:56.083Z,25.98
2024-04-12T11:44:56.090Z,26.00
2024-04-12T11:45:56.022Z,26.00
2024-04-12T11:46:56.027Z,25.98
2024-04-12T11:47:56.248Z,26.01
2024-04-12T11:48:56.233Z,26.03
2024-04-12T11:49:56.139Z,26.00
2024-04-12T11:50:56.190Z,26.01
2024-04-12T11:51:56.206Z,26.01
2024-04-12T11:52:56.561Z,25.98
2024-04-12T11:53:56.298Z,26.03
2024-04-12T11:54:56.344Z,25.98
2024-04-12T11:55:56.366Z,25.96
2024-04-12T11:56:56.434Z,25.96
2024-04-12T11:57:56.430Z,25.94
2024-04-12T11:58:57.137Z,25.91
2024-04-12T11:59:56.491Z,25.93
2024-04-12T12:00:56.531Z,25.96
2024-04-12T12:01:56.588Z,25.98
2024-04-12T12:02:56.620Z,25.98
2024-04-12T12:03:56.626Z,26.01
2024-04-12T12:04:56.610Z,26.03
2024-04-12T12:05:56.683Z,26.04
2024-04-12T12:06:56.662Z,26.03
2024-04-12T12:07:56.672Z,26.04
2024-04-12T12:08:56.703Z,26.07
2024-04-12T12:09:56.742Z,26.05
2024-04-12T12:10:56.739Z,26.05
2024-04-12T12:11:56.825Z,26.07
2024-04-12T12:12:56.767Z,26.08
2024-04-12T12:13:56.809Z,26.07
2024-04-12T12:14:56.852Z,26.07
2024-04-12T12:15:56.813Z,26.10
2024-04-12T12:16:57.366Z,26.08
2024-04-12T12:17:56.933Z,26.08
2024-04-12T12:18:56.925Z,26.10
2024-04-12T12:19:56.900Z,26.11
2024-04-12T12:20:57.054Z,26.10
2024-04-12T12:21:56.998Z,26.14
2024-04-12T12:22:56.998Z,26.14
2024-04-12T12:23:57.052Z,26.14
2024-04-12T12:24:57.036Z,26.16
2024-04-12T12:25:57.074Z,26.14
2024-04-12T12:26:57.152Z,26.14
2024-04-12T12:27:57.145Z,26.13
2024-04-12T12:28:57.178Z,26.14
2024-04-12T12:29:57.222Z,26.14
2024-04-12T12:30:57.231Z,26.14
2024-04-12T12:31:57.266Z,26.16
2024-04-12T12:32:57.379Z,26.14
2024-04-12T12:33:57.392Z,26.13
2024-04-12T12:34:57.340Z,26.14
2024-04-12T12:35:57.394Z,26.11
2024-04-12T12:36:57.416Z,26.13
2024-04-12T12:37:57.434Z,26.17
2024-04-12T12:38:57.413Z,26.16
2024-04-12T12:39:57.411Z,26.17
2024-04-12T12:40:57.448Z,26.17
2024-04-12T12:41:57.494Z,26.20
2024-04-12T12:42:57.474Z,26.17
2024-04-12T12:43:57.508Z,26.20
2024-04-12T12:44:57.533Z,26.23
2024-04-12T12:45:57.523Z,26.18
2024-04-12T12:46:57.567Z,26.21
2024-04-12T12:47:57.656Z,26.21
2024-04-12T12:48:57.708Z,26.18
2024-04-12T12:49:57.599Z,26.18
2024-04-12T12:50:57.712Z,26.17
2024-04-12T12:51:57.650Z,26.17
2024-04-12T12:52:57.708Z,26.14
2024-04-12T12:53:57.761Z,26.16